Time;durP1;ratioP1;P1;durP2;ratioP2;P2;SDS_P1;SDS_P2;PMS_P1;PMS_P2;Temp;Humidity;BMP_temperature;BMP_pressure;BME280_temperature;BME280_humidity;BME280_pressure;Samples;Min_cycle;Max_cycle;Signal;HPM_P1;HPM_P2
2021/09/15 00:00:11;;;;;;;;;;;24.00;64.20;;;;;;5073672;28;19924;-63
2021/09/15 00:02:38;;;;;;;;;;;24.00;64.20;;;;;;5072740;28;19924;-63
2021/09/15 00:05:06;;;;;;;;;;;24.00;64.20;;;;;;5075130;28;19954;-63
2021/09/15 00:07:33;;;;;;;;;;;24.00;64.20;;;;;;5073396;28;20442;-64
2021/09/15 00:10:00;;;;;;;;;;;24.00;65.00;;;;;;5072052;28;19968;-63
2021/09/15 00:12:27;;;;;;;;;;;24.00;64.20;;;;;;5073507;28;19925;-63
2021/09/15 00:14:54;;;;;;;;;;;24.00;64.20;;;;;;5089486;28;19996;-63
2021/09/15 00:17:21;;;;;;;;;;;24.00;64.20;;;;;;5089778;28;19970;-63
2021/09/15 00:19:48;;;;;;;;;;;24.00;64.10;;;;;;5090309;28;19962;-63
2021/09/15 00:22:15;;;;;;;;;;;24.00;64.10;;;;;;5089602;28;19975;-63
2021/09/15 00:24:42;;;;;;;;;;;24.00;64.20;;;;;;5078806;28;20015;-64
2021/09/15 00:27:09;;;;;;;;;;;23.90;64.00;;;;;;5073409;28;19981;-63
2021/09/15 00:29:38;;;;;;;;;;;24.00;64.90;;;;;;5081688;28;19967;-64
2021/09/15 00:32:05;;;;;;;;;;;24.00;64.10;;;;;;5083193;28;19924;-63
2021/09/15 00:34:32;;;;;;;;;;;24.00;64.10;;;;;;5072945;28;19924;-63
2021/09/15 00:36:59;;;;;;;;;;;24.00;64.10;;;;;;5073039;28;20257;-63
2021/09/15 00:39:26;;;;;;;;;;;23.90;64.00;;;;;;5079459;28;19982;-63
2021/09/15 00:41:53;;;;;;;;;;;24.00;64.10;;;;;;5085100;28;19924;-63
2021/09/15 00:44:20;;;;;;;;;;;24.00;64.10;;;;;;5072522;28;19952;-64
2021/09/15 00:46:47;;;;;;;;;;;24.00;64.00;;;;;;5074112;28;20296;-63
2021/09/15 00:49:14;;;;;;;;;;;24.00;64.00;;;;;;5074328;28;20311;-63
2021/09/15 00:51:44;;;;;;;;;;;24.00;64.00;;;;;;5072627;28;20406;-64
2021/09/15 00:54:12;;;;;;;;;;;24.00;64.00;;;;;;5073487;28;19973;-63
2021/09/15 00:56:39;;;;;;;;;;;24.00;64.00;;;;;;5055023;28;19978;-64
2021/09/15 00:59:06;;;;;;;;;;;24.00;63.90;;;;;;5071967;28;19967;-64
2021/09/15 01:01:33;;;;;;;;;;;24.00;64.00;;;;;;5072679;28;19954;-63
2021/09/15 01:04:04;;;;;;;;;;;24.00;63.90;;;;;;5074065;28;20015;-63
2021/09/15 01:06:32;;;;;;;;;;;24.00;64.00;;;;;;5088858;28;20279;-64
2021/09/15 01:09:00;;;;;;;;;;;24.00;63.90;;;;;;5090371;28;19973;-63
2021/09/15 01:11:27;;;;;;;;;;;24.00;63.90;;;;;;5075445;28;19924;-63
2021/09/15 01:13:54;;;;;;;;;;;24.00;63.90;;;;;;5073800;28;19928;-63
2021/09/15 01:16:21;;;;;;;;;;;24.00;63.90;;;;;;5087473;28;20273;-63
2021/09/15 01:18:48;;;;;;;;;;;24.00;63.90;;;;;;5076578;28;19946;-63
2021/09/15 01:21:15;;;;;;;;;;;24.00;63.90;;;;;;5083991;28;19924;-63
2021/09/15 01:23:42;;;;;;;;;;;24.00;63.90;;;;;;5088866;28;20069;-63
2021/09/15 01:26:09;;;;;;;;;;;24.00;63.90;;;;;;5079434;28;19924;-63
2021/09/15 01:28:36;;;;;;;;;;;24.00;63.90;;;;;;5081922;28;19928;-63
2021/09/15 01:31:03;;;;;;;;;;;23.90;63.80;;;;;;5088864;28;19924;-63
2021/09/15 01:33:30;;;;;;;;;;;23.90;63.80;;;;;;5089580;28;20392;-63
2021/09/15 01:35:57;;;;;;;;;;;23.90;63.80;;;;;;5087953;28;19968;-63
2021/09/15 01:38:23;;;;;;;;;;;23.90;63.80;;;;;;5086601;28;19967;-63
2021/09/15 01:40:50;;;;;;;;;;;23.90;63.70;;;;;;5072121;28;19924;-63
2021/09/15 01:43:17;;;;;;;;;;;23.90;63.70;;;;;;5073085;28;19924;-64
2021/09/15 01:45:44;;;;;;;;;;;23.90;63.70;;;;;;5074810;28;19972;-63
2021/09/15 01:48:11;;;;;;;;;;;23.90;63.70;;;;;;5074872;28;19955;-64
2021/09/15 01:50:38;;;;;;;;;;;24.00;63.80;;;;;;5072231;28;19929;-64
2021/09/15 01:53:05;;;;;;;;;;;23.90;63.70;;;;;;5073738;28;20398;-64
2021/09/15 01:55:32;;;;;;;;;;;23.90;63.60;;;;;;5076963;28;20026;-63
2021/09/15 01:57:59;;;;;;;;;;;23.90;63.70;;;;;;5092956;28;20038;-64
2021/09/15 02:00:26;;;;;;;;;;;23.90;63.70;;;;;;5093104;28;19928;-64
2021/09/15 02:02:53;;;;;;;;;;;23.90;63.70;;;;;;5077604;28;20379;-64
2021/09/15 02:05:20;;;;;;;;;;;23.90;63.70;;;;;;5075800;28;19966;-63
2021/09/15 02:07:47;;;;;;;;;;;23.90;63.60;;;;;;5109698;27;19972;-63
2021/09/15 02:10:14;;;;;;;;;;;23.90;63.60;;;;;;5077220;28;20038;-63
2021/09/15 02:12:40;;;;;;;;;;;23.90;63.60;;;;;;5089382;28;19992;-63
2021/09/15 02:15:12;;;;;;;;;;;23.90;63.50;;;;;;5093461;28;20380;-63
2021/09/15 02:17:39;;;;;;;;;;;23.90;63.50;;;;;;5081625;28;19929;-63
2021/09/15 02:20:07;;;;;;;;;;;23.90;63.50;;;;;;5086802;28;20334;-63
2021/09/15 02:22:34;;;;;;;;;;;23.90;63.50;;;;;;5091966;28;19974;-63
2021/09/15 02:25:06;;;;;;;;;;;23.90;63.50;;;;;;5092027;28;19924;-63
2021/09/15 02:27:33;;;;;;;;;;;24.00;63.60;;;;;;5091818;28;19927;-63
2021/09/15 02:30:00;;;;;;;;;;;23.90;63.40;;;;;;5084642;28;20380;-63
2021/09/15 02:32:27;;;;;;;;;;;23.90;63.50;;;;;;5077505;28;19959;-63
2021/09/15 02:34:54;;;;;;;;;;;23.90;63.50;;;;;;5077928;28;19925;-63
2021/09/15 02:37:21;;;;;;;;;;;23.90;63.50;;;;;;5076476;28;20443;-63
2021/09/15 02:39:48;;;;;;;;;;;23.90;63.40;;;;;;5076730;28;19967;-63
2021/09/15 02:42:15;;;;;;;;;;;23.90;63.50;;;;;;5076695;28;19928;-63
2021/09/15 02:44:42;;;;;;;;;;;23.90;63.40;;;;;;5109294;27;19924;-63
2021/09/15 02:47:09;;;;;;;;;;;23.90;63.50;;;;;;5077419;28;19967;-63
2021/09/15 02:49:36;;;;;;;;;;;23.90;63.40;;;;;;5108250;28;20338;-63
2021/09/15 02:52:03;;;;;;;;;;;23.90;63.40;;;;;;5090218;28;19924;-63
2021/09/15 02:54:30;;;;;;;;;;;23.90;63.40;;;;;;5119758;27;20026;-63
2021/09/15 02:56:57;;;;;;;;;;;23.90;63.40;;;;;;5092832;28;19954;-63
2021/09/15 02:59:24;;;;;;;;;;;23.90;63.40;;;;;;5077405;28;19925;-63
2021/09/15 03:01:51;;;;;;;;;;;23.90;63.40;;;;;;5076196;28;19924;-63
2021/09/15 03:04:18;;;;;;;;;;;23.90;63.40;;;;;;5089956;28;19930;-64
2021/09/15 03:06:45;;;;;;;;;;;23.90;63.40;;;;;;5091661;28;19927;-63
2021/09/15 03:09:11;;;;;;;;;;;23.90;63.40;;;;;;5079905;28;19959;-63
2021/09/15 03:11:38;;;;;;;;;;;23.90;63.40;;;;;;5074363;28;19924;-63
2021/09/15 03:14:05;;;;;;;;;;;23.90;63.40;;;;;;5085296;28;19970;-63
2021/09/15 03:16:32;;;;;;;;;;;23.90;63.30;;;;;;5081327;28;20384;-63
2021/09/15 03:18:59;;;;;;;;;;;23.90;63.40;;;;;;5075442;28;19975;-63
2021/09/15 03:21:26;;;;;;;;;;;23.90;63.30;;;;;;5075579;28;19960;-63
2021/09/15 03:23:53;;;;;;;;;;;23.90;63.40;;;;;;5109446;27;19925;-63
2021/09/15 03:26:20;;;;;;;;;;;23.90;63.40;;;;;;5075460;28;19974;-63
2021/09/15 03:28:47;;;;;;;;;;;23.90;63.40;;;;;;5074119;28;19924;-63
2021/09/15 03:31:14;;;;;;;;;;;23.90;63.30;;;;;;5106420;28;19924;-63
2021/09/15 03:33:41;;;;;;;;;;;23.90;63.30;;;;;;5078092;28;19971;-63
2021/09/15 03:36:08;;;;;;;;;;;23.90;63.30;;;;;;5091990;28;20019;-63
2021/09/15 03:38:35;;;;;;;;;;;23.90;63.30;;;;;;5091785;28;19982;-63
2021/09/15 03:41:03;;;;;;;;;;;23.90;63.30;;;;;;5123621;27;20046;-63
2021/09/15 03:43:30;;;;;;;;;;;23.90;63.30;;;;;;5063546;28;20010;-63
2021/09/15 03:45:57;;;;;;;;;;;23.90;63.20;;;;;;5073872;28;20404;-63
2021/09/15 03:48:24;;;;;;;;;;;23.90;63.20;;;;;;5082275;28;19967;-64
2021/09/15 03:50:50;;;;;;;;;;;23.90;63.20;;;;;;5074146;28;20054;-63
2021/09/15 03:53:17;;;;;;;;;;;23.90;63.20;;;;;;5075720;28;20011;-63
2021/09/15 03:55:44;;;;;;;;;;;23.90;63.20;;;;;;5072832;28;19924;-63
2021/09/15 03:58:11;;;;;;;;;;;23.90;63.20;;;;;;5073585;28;19979;-63
2021/09/15 04:00:38;;;;;;;;;;;23.90;63.20;;;;;;5073302;28;19974;-64
2021/09/15 04:03:05;;;;;;;;;;;23.90;63.10;;;;;;5084654;28;19928;-63
2021/09/15 04:05:32;;;;;;;;;;;23.90;63.10;;;;;;5079974;28;20322;-63
2021/09/15 04:07:59;;;;;;;;;;;23.90;63.10;;;;;;5074668;28;19924;-64
2021/09/15 04:10:26;;;;;;;;;;;23.90;63.10;;;;;;5084140;28;19974;-63
2021/09/15 04:12:54;;;;;;;;;;;23.90;63.10;;;;;;5089915;28;19964;-63
2021/09/15 04:15:22;;;;;;;;;;;23.90;63.10;;;;;;5081710;28;19931;-63
2021/09/15 04:17:49;;;;;;;;;;;23.90;63.10;;;;;;5074010;28;20372;-63
2021/09/15 04:20:16;;;;;;;;;;;23.90;63.10;;;;;;5079070;28;19924;-63
2021/09/15 04:22:44;;;;;;;;;;;23.90;63.10;;;;;;5086798;28;19998;-63
2021/09/15 04:33:27;;;;;;;;;;;23.90;63.10;;;;;;5074230;28;19971;-63
2021/09/15 04:35:54;;;;;;;;;;;23.90;63.10;;;;;;5074543;28;19924;-63
2021/09/15 04:38:21;;;;;;;;;;;23.90;63.10;;;;;;5075565;28;19928;-63
2021/09/15 04:40:48;;;;;;;;;;;23.90;63.10;;;;;;5073792;28;19970;-64
2021/09/15 04:43:15;;;;;;;;;;;23.90;63.10;;;;;;5077614;28;19970;-63
2021/09/15 04:45:42;;;;;;;;;;;23.90;63.10;;;;;;5076371;28;20011;-63
2021/09/15 04:48:08;;;;;;;;;;;23.90;63.10;;;;;;5075517;28;20011;-64
2021/09/15 04:50:35;;;;;;;;;;;23.90;63.00;;;;;;5123522;27;19968;-63
2021/09/15 04:53:02;;;;;;;;;;;23.90;63.00;;;;;;5080529;28;20414;-63
2021/09/15 04:55:32;;;;;;;;;;;23.90;63.00;;;;;;5062601;28;19924;-63
2021/09/15 04:57:59;;;;;;;;;;;23.90;62.90;;;;;;5090240;28;20004;-63
2021/09/15 05:00:26;;;;;;;;;;;23.90;62.90;;;;;;5073934;28;19964;-63
2021/09/15 05:02:54;;;;;;;;;;;23.90;62.80;;;;;;5072786;28;19971;-63
2021/09/15 05:05:21;;;;;;;;;;;23.90;62.80;;;;;;5072898;28;19974;-63
2021/09/15 05:07:47;;;;;;;;;;;23.90;62.80;;;;;;5072811;28;20010;-63
2021/09/15 05:10:14;;;;;;;;;;;23.90;62.70;;;;;;5074602;28;19964;-63
2021/09/15 05:12:41;;;;;;;;;;;23.90;62.70;;;;;;5073792;28;19928;-63
2021/09/15 05:15:09;;;;;;;;;;;23.90;62.70;;;;;;5087776;28;19973;-63
2021/09/15 05:17:36;;;;;;;;;;;24.00;62.70;;;;;;5078104;28;19932;-63
2021/09/15 05:20:03;;;;;;;;;;;24.00;62.70;;;;;;5073418;28;19967;-64
2021/09/15 05:22:30;;;;;;;;;;;24.00;62.70;;;;;;5073786;28;19985;-63
2021/09/15 05:24:57;;;;;;;;;;;24.00;62.60;;;;;;5084147;28;19924;-63
2021/09/15 05:27:24;;;;;;;;;;;24.00;62.60;;;;;;5079911;28;19925;-63
2021/09/15 05:29:51;;;;;;;;;;;24.00;62.50;;;;;;5076879;28;19924;-63
2021/09/15 05:32:18;;;;;;;;;;;24.00;62.40;;;;;;5085111;28;20302;-63
2021/09/15 05:34:45;;;;;;;;;;;24.00;62.40;;;;;;5094113;28;20437;-63
2021/09/15 05:37:12;;;;;;;;;;;24.00;62.40;;;;;;5086471;28;19964;-63
2021/09/15 05:39:39;;;;;;;;;;;24.10;62.40;;;;;;5078752;28;19924;-63
2021/09/15 05:42:06;;;;;;;;;;;24.10;62.40;;;;;;5081172;28;19997;-63
2021/09/15 05:44:33;;;;;;;;;;;24.10;62.30;;;;;;5077681;28;20023;-64
2021/09/15 05:47:00;;;;;;;;;;;24.10;62.20;;;;;;5077468;28;19924;-63
2021/09/15 05:49:27;;;;;;;;;;;24.10;62.20;;;;;;5110272;27;19924;-63
2021/09/15 05:51:54;;;;;;;;;;;24.10;62.10;;;;;;5094426;28;19928;-63
2021/09/15 05:54:20;;;;;;;;;;;24.10;62.10;;;;;;5075941;28;19970;-63
2021/09/15 05:56:47;;;;;;;;;;;24.10;62.10;;;;;;5076944;28;19924;-64
2021/09/15 05:59:14;;;;;;;;;;;24.10;62.00;;;;;;5077315;28;19925;-64
2021/09/15 06:01:41;;;;;;;;;;;24.10;62.00;;;;;;5093283;28;19960;-63
2021/09/15 06:04:08;;;;;;;;;;;24.10;62.00;;;;;;5093791;28;19930;-63
2021/09/15 06:06:35;;;;;;;;;;;24.10;61.80;;;;;;5078869;28;20338;-63
2021/09/15 06:09:02;;;;;;;;;;;24.20;61.90;;;;;;5089696;28;19967;-63
2021/09/15 06:11:29;;;;;;;;;;;24.20;61.90;;;;;;5113320;27;20341;-64
2021/09/15 06:13:56;;;;;;;;;;;24.20;61.80;;;;;;5075436;28;19983;-63
2021/09/15 06:16:24;;;;;;;;;;;24.20;61.80;;;;;;5076565;28;19924;-62
2021/09/15 06:18:51;;;;;;;;;;;24.20;61.70;;;;;;5085987;28;20007;-62
2021/09/15 06:21:18;;;;;;;;;;;24.20;61.70;;;;;;5092055;28;19924;-63
2021/09/15 06:23:52;;;;;;;;;;;24.20;61.70;;;;;;5093570;28;19954;-63
2021/09/15 06:26:23;;;;;;;;;;;24.20;61.70;;;;;;5091622;28;19924;-63
2021/09/15 06:28:54;;;;;;;;;;;24.20;61.60;;;;;;5083215;28;19974;-62
2021/09/15 06:31:22;;;;;;;;;;;24.30;61.60;;;;;;5076645;28;19924;-62
2021/09/15 06:33:49;;;;;;;;;;;24.30;61.60;;;;;;5082141;28;19928;-64
2021/09/15 06:36:16;;;;;;;;;;;24.30;61.60;;;;;;5090297;28;20002;-64
2021/09/15 06:38:43;;;;;;;;;;;24.30;61.50;;;;;;5076084;28;20015;-63
2021/09/15 06:41:10;;;;;;;;;;;24.30;61.50;;;;;;5078542;28;20003;-64
2021/09/15 06:43:40;;;;;;;;;;;24.30;61.40;;;;;;5084693;28;19970;-63
2021/09/15 06:46:07;;;;;;;;;;;24.30;61.40;;;;;;5077090;28;20377;-63
2021/09/15 06:48:34;;;;;;;;;;;24.30;61.40;;;;;;5091847;28;19947;-63
2021/09/15 06:51:01;;;;;;;;;;;24.40;61.50;;;;;;5076143;28;19924;-62
2021/09/15 06:53:28;;;;;;;;;;;24.40;61.40;;;;;;5077954;28;19932;-64
2021/09/15 06:55:55;;;;;;;;;;;24.40;61.40;;;;;;5058486;28;19925;-64
2021/09/15 06:58:22;;;;;;;;;;;24.40;61.30;;;;;;5075900;28;19970;-63
2021/09/15 07:00:49;;;;;;;;;;;24.40;61.30;;;;;;5075980;28;20029;-64
2021/09/15 07:03:16;;;;;;;;;;;24.40;61.30;;;;;;5075307;28;19935;-64
2021/09/15 07:05:44;;;;;;;;;;;24.40;61.30;;;;;;5074584;28;19928;-63
2021/09/15 07:08:11;;;;;;;;;;;24.40;61.20;;;;;;5091081;28;20334;-63
2021/09/15 07:10:39;;;;;;;;;;;24.40;61.20;;;;;;5078338;28;19947;-63
2021/09/15 07:13:07;;;;;;;;;;;24.40;61.20;;;;;;5074444;28;20007;-63
2021/09/15 07:15:33;;;;;;;;;;;24.40;61.20;;;;;;5075435;28;19928;-63
2021/09/15 07:18:00;;;;;;;;;;;24.40;61.20;;;;;;5076054;28;19925;-63
2021/09/15 07:20:27;;;;;;;;;;;24.40;61.20;;;;;;5084546;28;20395;-63
2021/09/15 07:22:54;;;;;;;;;;;24.40;61.10;;;;;;5081410;28;19956;-63
2021/09/15 07:25:21;;;;;;;;;;;24.40;61.10;;;;;;5083833;28;19928;-63
2021/09/15 07:27:48;;;;;;;;;;;24.50;61.10;;;;;;5090942;28;20295;-63
2021/09/15 07:30:15;;;;;;;;;;;24.50;61.10;;;;;;5085800;28;20313;-62
2021/09/15 07:32:42;;;;;;;;;;;24.50;61.00;;;;;;5075524;28;19989;-62
2021/09/15 07:35:10;;;;;;;;;;;24.50;61.00;;;;;;5073835;28;20334;-62
2021/09/15 07:37:37;;;;;;;;;;;24.50;61.00;;;;;;5074692;28;20011;-62
2021/09/15 07:40:06;;;;;;;;;;;24.50;61.00;;;;;;5076218;28;19925;-62
2021/09/15 07:42:32;;;;;;;;;;;24.50;60.90;;;;;;5089972;28;19924;-63
2021/09/15 07:45:00;;;;;;;;;;;24.50;60.90;;;;;;5074671;28;19924;-62
2021/09/15 07:47:27;;;;;;;;;;;24.50;60.90;;;;;;5073582;28;19978;-62
2021/09/15 07:49:53;;;;;;;;;;;24.50;60.90;;;;;;5056120;28;19925;-63
2021/09/15 07:52:20;;;;;;;;;;;24.50;60.90;;;;;;5072636;28;19924;-62
2021/09/15 07:54:47;;;;;;;;;;;24.50;60.90;;;;;;5082544;28;20007;-62
2021/09/15 07:57:15;;;;;;;;;;;24.50;60.80;;;;;;5089657;28;19924;-64
2021/09/15 07:59:43;;;;;;;;;;;24.60;60.80;;;;;;5074864;28;19970;-62
2021/09/15 08:02:11;;;;;;;;;;;24.60;60.90;;;;;;5073316;28;20008;-62
2021/09/15 08:04:38;;;;;;;;;;;24.60;60.80;;;;;;5075768;28;19925;-62
2021/09/15 08:07:05;;;;;;;;;;;24.60;60.70;;;;;;5074480;28;19924;-62
2021/09/15 08:09:32;;;;;;;;;;;24.60;60.70;;;;;;5073064;28;19968;-62
2021/09/15 08:11:59;;;;;;;;;;;24.60;60.70;;;;;;5075608;28;19924;-62
2021/09/15 08:14:26;;;;;;;;;;;24.60;60.70;;;;;;5106664;27;19978;-62
2021/09/15 08:16:55;;;;;;;;;;;24.60;60.70;;;;;;5074862;28;19978;-62
2021/09/15 08:19:23;;;;;;;;;;;24.60;60.70;;;;;;5073154;28;20376;-62
2021/09/15 08:21:50;;;;;;;;;;;24.60;60.70;;;;;;5072955;28;19967;-62
2021/09/15 08:24:17;;;;;;;;;;;24.60;60.70;;;;;;5073229;28;20360;-62
2021/09/15 08:26:44;;;;;;;;;;;24.60;60.70;;;;;;5080873;28;20024;-62
2021/09/15 08:29:11;;;;;;;;;;;24.60;60.90;;;;;;5089628;28;19947;-62
2021/09/15 08:31:38;;;;;;;;;;;24.60;60.80;;;;;;5089813;28;19924;-63
2021/09/15 08:34:05;;;;;;;;;;;24.60;60.80;;;;;;5086062;28;20380;-63
2021/09/15 08:36:32;;;;;;;;;;;24.60;61.00;;;;;;5074411;28;19924;-63
2021/09/15 08:38:59;;;;;;;;;;;24.60;61.10;;;;;;5074096;28;19931;-62
2021/09/15 08:41:26;;;;;;;;;;;24.60;61.10;;;;;;5073396;28;20019;-63
2021/09/15 08:43:53;;;;;;;;;;;24.60;61.30;;;;;;5080249;28;19924;-62
2021/09/15 08:46:21;;;;;;;;;;;24.50;61.20;;;;;;5074203;28;19925;-62
2021/09/15 08:48:48;;;;;;;;;;;24.60;61.30;;;;;;5071827;28;19924;-62
2021/09/15 08:51:16;;;;;;;;;;;24.60;61.40;;;;;;5090382;28;19924;-62
2021/09/15 08:53:44;;;;;;;;;;;24.60;61.30;;;;;;5072841;28;19924;-62
2021/09/15 08:56:12;;;;;;;;;;;24.60;61.30;;;;;;5071788;28;20325;-63
2021/09/15 08:58:39;;;;;;;;;;;24.60;61.30;;;;;;5089731;28;19989;-62
2021/09/15 09:01:24;;;;;;;;;;;24.60;61.40;;;;;;5075881;28;19979;-62
2021/09/15 09:03:53;;;;;;;;;;;24.60;61.50;;;;;;5073110;28;19924;-62
2021/09/15 09:06:22;;;;;;;;;;;24.60;61.40;;;;;;5073582;28;19925;-63
2021/09/15 09:08:54;;;;;;;;;;;24.60;61.50;;;;;;5073659;28;19924;-62
2021/09/15 09:11:23;;;;;;;;;;;24.60;61.50;;;;;;5087378;28;19924;-62
2021/09/15 09:13:51;;;;;;;;;;;24.60;61.60;;;;;;5089289;28;19924;-63
2021/09/15 09:16:35;;;;;;;;;;;24.60;61.60;;;;;;5090701;28;20007;-63
2021/09/15 09:19:03;;;;;;;;;;;24.60;61.50;;;;;;5090344;28;19924;-63
2021/09/15 09:21:31;;;;;;;;;;;24.60;61.60;;;;;;5075646;28;19978;-63
2021/09/15 09:24:00;;;;;;;;;;;24.60;61.60;;;;;;5074811;28;19924;-63
2021/09/15 09:26:46;;;;;;;;;;;24.60;61.60;;;;;;5073303;28;19975;-63
2021/09/15 09:29:14;;;;;;;;;;;24.60;61.60;;;;;;5106242;28;20373;-62
2021/09/15 09:31:41;;;;;;;;;;;24.60;61.60;;;;;;5073377;28;19924;-62
2021/09/15 09:34:07;;;;;;;;;;;24.60;61.60;;;;;;5072381;28;19935;-63
2021/09/15 09:36:34;;;;;;;;;;;24.60;61.70;;;;;;5073643;28;19924;-62
2021/09/15 09:39:08;;;;;;;;;;;24.60;61.70;;;;;;5074015;28;20019;-62
2021/09/15 09:41:35;;;;;;;;;;;24.60;61.70;;;;;;5082594;28;20392;-62
2021/09/15 09:44:02;;;;;;;;;;;24.60;61.70;;;;;;5079688;28;20371;-62
2021/09/15 09:46:33;;;;;;;;;;;24.60;61.60;;;;;;5072084;28;20392;-62
2021/09/15 09:49:01;;;;;;;;;;;24.60;61.50;;;;;;5080102;28;19924;-62
2021/09/15 09:51:30;;;;;;;;;;;24.70;61.60;;;;;;5089882;28;19951;-61
2021/09/15 09:54:12;;;;;;;;;;;24.70;61.50;;;;;;5068571;28;19925;-62
2021/09/15 09:56:41;;;;;;;;;;;24.70;61.40;;;;;;5069994;28;19924;-62
2021/09/15 09:59:08;;;;;;;;;;;24.70;61.50;;;;;;5082274;28;20007;-62
2021/09/15 10:01:38;;;;;;;;;;;24.70;61.50;;;;;;5077710;28;20027;-63
2021/09/15 10:04:05;;;;;;;;;;;24.70;62.30;;;;;;5085376;28;19975;-62
2021/09/15 10:06:32;;;;;;;;;;;24.70;61.60;;;;;;5072068;28;19959;-62
2021/09/15 10:09:00;;;;;;;;;;;24.70;61.50;;;;;;5073256;28;19925;-62
2021/09/15 10:11:27;;;;;;;;;;;24.70;61.50;;;;;;5074152;28;19928;-62
2021/09/15 10:13:54;;;;;;;;;;;24.70;61.40;;;;;;5088857;28;19936;-62
2021/09/15 10:16:22;;;;;;;;;;;24.70;61.50;;;;;;5074233;28;19924;-63
2021/09/15 10:18:53;;;;;;;;;;;24.70;61.50;;;;;;5075893;28;19932;-62
2021/09/15 10:21:24;;;;;;;;;;;24.70;61.40;;;;;;5073962;28;19960;-62
2021/09/15 10:23:51;;;;;;;;;;;24.70;61.30;;;;;;5076442;28;19975;-62
2021/09/15 10:26:26;;;;;;;;;;;24.70;61.30;;;;;;5075295;28;19946;-62
2021/09/15 10:29:11;;;;;;;;;;;24.70;61.30;;;;;;5074596;28;20028;-62
2021/09/15 10:31:48;;;;;;;;;;;24.80;61.40;;;;;;5058306;28;19933;-62
2021/09/15 10:34:34;;;;;;;;;;;24.80;61.30;;;;;;5058754;28;19924;-63
2021/09/15 10:37:01;;;;;;;;;;;24.80;61.20;;;;;;5061947;28;19986;-62
2021/09/15 10:39:28;;;;;;;;;;;24.80;61.20;;;;;;5091697;28;19925;-62
2021/09/15 10:41:56;;;;;;;;;;;24.90;61.10;;;;;;5076943;28;20393;-62
2021/09/15 10:44:23;;;;;;;;;;;24.90;61.00;;;;;;5077738;28;19924;-62
2021/09/15 10:47:10;;;;;;;;;;;24.90;60.90;;;;;;5093145;28;20284;-62
2021/09/15 10:49:41;;;;;;;;;;;24.90;60.80;;;;;;5059203;28;19935;-62
2021/09/15 10:52:10;;;;;;;;;;;25.00;60.80;;;;;;5062536;28;19935;-62
2021/09/15 10:54:48;;;;;;;;;;;25.00;60.70;;;;;;5086892;28;20020;-62
2021/09/15 10:57:19;;;;;;;;;;;25.00;60.60;;;;;;5074925;28;21873;-62
2021/09/15 10:59:47;;;;;;;;;;;25.00;60.50;;;;;;5074787;28;20425;-62
2021/09/15 11:02:23;;;;;;;;;;;25.10;60.50;;;;;;5075121;28;19925;-62
2021/09/15 11:04:50;;;;;;;;;;;25.10;60.40;;;;;;5092778;28;19924;-62
2021/09/15 11:07:35;;;;;;;;;;;25.10;60.30;;;;;;5074883;28;19931;-62
2021/09/15 11:10:02;;;;;;;;;;;25.10;60.20;;;;;;5093685;28;19924;-62
2021/09/15 11:12:47;;;;;;;;;;;25.20;60.20;;;;;;5074554;28;19971;-63
2021/09/15 11:15:24;;;;;;;;;;;25.20;60.10;;;;;;5058449;28;19932;-62
2021/09/15 11:17:52;;;;;;;;;;;25.20;60.10;;;;;;5060105;28;19924;-62
2021/09/15 11:20:23;;;;;;;;;;;25.20;60.00;;;;;;5074613;28;19947;-63
2021/09/15 11:22:50;;;;;;;;;;;25.20;60.00;;;;;;5090516;28;19968;-62
2021/09/15 11:25:18;;;;;;;;;;;25.30;60.00;;;;;;5075064;28;20352;-62
2021/09/15 11:28:03;;;;;;;;;;;25.30;60.00;;;;;;5092550;28;19924;-62
2021/09/15 11:30:30;;;;;;;;;;;25.20;60.00;;;;;;5074692;28;20019;-62
2021/09/15 11:32:58;;;;;;;;;;;25.20;60.00;;;;;;5092255;28;19943;-62
2021/09/15 11:35:25;;;;;;;;;;;25.20;60.00;;;;;;5091811;28;19978;-62
2021/09/15 11:37:52;;;;;;;;;;;25.20;60.10;;;;;;5090517;28;20447;-62
2021/09/15 11:40:25;;;;;;;;;;;25.20;60.10;;;;;;5075049;28;19924;-63
2021/09/15 11:42:52;;;;;;;;;;;25.20;60.20;;;;;;5072769;28;19924;-62
2021/09/15 11:45:20;;;;;;;;;;;25.20;60.20;;;;;;5075451;28;19952;-63
2021/09/15 11:47:56;;;;;;;;;;;25.10;60.20;;;;;;5075300;28;20335;-62
2021/09/15 11:50:23;;;;;;;;;;;25.20;60.30;;;;;;5073684;28;19974;-62
2021/09/15 11:52:57;;;;;;;;;;;25.20;60.30;;;;;;5074397;28;19975;-62
2021/09/15 11:55:24;;;;;;;;;;;25.20;60.30;;;;;;5074378;28;19925;-62
2021/09/15 11:57:53;;;;;;;;;;;25.20;60.30;;;;;;5085374;28;19967;-62
2021/09/15 12:00:21;;;;;;;;;;;25.10;60.20;;;;;;5090017;28;20379;-62
2021/09/15 12:02:49;;;;;;;;;;;25.20;60.30;;;;;;5090378;28;20011;-62
2021/09/15 12:05:16;;;;;;;;;;;25.20;60.30;;;;;;5081619;28;20019;-62
2021/09/15 12:07:43;;;;;;;;;;;25.10;60.20;;;;;;5074672;28;19974;-62
2021/09/15 12:10:11;;;;;;;;;;;25.20;60.30;;;;;;5074608;28;20334;-62
2021/09/15 12:12:39;;;;;;;;;;;25.20;60.30;;;;;;5074536;28;20454;-62
2021/09/15 12:15:06;;;;;;;;;;;25.20;60.20;;;;;;5079995;28;20284;-62
2021/09/15 12:17:34;;;;;;;;;;;25.20;60.20;;;;;;5084744;28;19924;-62
2021/09/15 12:20:01;;;;;;;;;;;25.20;60.20;;;;;;5073285;28;20003;-62
2021/09/15 12:22:31;;;;;;;;;;;25.20;60.20;;;;;;5073425;28;20057;-62
2021/09/15 12:25:00;;;;;;;;;;;25.20;60.30;;;;;;5077168;28;19976;-62
2021/09/15 12:27:28;;;;;;;;;;;25.20;60.30;;;;;;5089089;28;19924;-62
2021/09/15 12:29:59;;;;;;;;;;;25.20;60.40;;;;;;5073192;28;19924;-62
2021/09/15 12:32:27;;;;;;;;;;;25.20;60.40;;;;;;5075273;28;20019;-62
2021/09/15 12:34:55;;;;;;;;;;;25.20;60.40;;;;;;5091070;28;19930;-62
2021/09/15 12:37:22;;;;;;;;;;;25.20;60.40;;;;;;5054754;28;19924;-62
2021/09/15 12:39:50;;;;;;;;;;;25.30;60.50;;;;;;5073158;28;20273;-62
2021/09/15 12:42:24;;;;;;;;;;;25.30;60.60;;;;;;5091811;28;19935;-63
2021/09/15 12:44:58;;;;;;;;;;;25.30;60.60;;;;;;5090231;28;19954;-63
2021/09/15 12:47:45;;;;;;;;;;;25.30;60.70;;;;;;5090061;28;19953;-62
2021/09/15 12:50:12;;;;;;;;;;;25.30;60.70;;;;;;5057298;28;19929;-62
2021/09/15 12:52:39;;;;;;;;;;;25.30;60.70;;;;;;5081521;28;19925;-63
2021/09/15 12:55:06;;;;;;;;;;;25.30;60.70;;;;;;5073520;28;20347;-62
2021/09/15 12:57:34;;;;;;;;;;;25.20;60.90;;;;;;5072728;28;20341;-62
2021/09/15 13:00:22;;;;;;;;;;;25.20;61.10;;;;;;5089202;28;20211;-63
2021/09/15 13:03:02;;;;;;;;;;;25.20;61.00;;;;;;5073060;28;20001;-62
2021/09/15 13:05:34;;;;;;;;;;;25.20;61.20;;;;;;5073328;28;19924;-62
2021/09/15 13:08:02;;;;;;;;;;;25.20;61.20;;;;;;5073991;28;19955;-62
2021/09/15 13:10:29;;;;;;;;;;;25.30;61.30;;;;;;5084430;28;20252;-62
2021/09/15 13:12:56;;;;;;;;;;;25.20;61.40;;;;;;5072559;28;19977;-62
2021/09/15 13:15:23;;;;;;;;;;;25.30;61.40;;;;;;5089972;28;20429;-62
2021/09/15 13:17:50;;;;;;;;;;;25.20;61.50;;;;;;5089125;28;19970;-63
2021/09/15 13:20:16;;;;;;;;;;;25.30;61.50;;;;;;5075975;28;20435;-62
2021/09/15 13:22:44;;;;;;;;;;;25.20;61.50;;;;;;5085952;28;19930;-62
2021/09/15 13:25:11;;;;;;;;;;;25.30;61.80;;;;;;5076607;28;20372;-62
2021/09/15 13:27:38;;;;;;;;;;;25.20;61.70;;;;;;5072283;28;19925;-62
2021/09/15 13:30:06;;;;;;;;;;;25.20;61.70;;;;;;5072392;28;19952;-62
2021/09/15 13:32:33;;;;;;;;;;;25.20;61.70;;;;;;5072391;28;19970;-62
2021/09/15 13:35:01;;;;;;;;;;;25.20;61.70;;;;;;5072718;28;19925;-62
2021/09/15 13:37:28;;;;;;;;;;;25.20;61.90;;;;;;5072216;28;20372;-62
2021/09/15 13:39:56;;;;;;;;;;;25.20;61.90;;;;;;5080364;28;19970;-62
2021/09/15 13:42:23;;;;;;;;;;;25.20;61.90;;;;;;5088577;28;19985;-62
2021/09/15 13:44:50;;;;;;;;;;;25.20;61.90;;;;;;5072553;28;19925;-62
2021/09/15 13:47:17;;;;;;;;;;;25.20;62.00;;;;;;5074684;28;19929;-63
2021/09/15 13:49:44;;;;;;;;;;;25.20;62.00;;;;;;5078029;28;19935;-62
2021/09/15 13:52:13;;;;;;;;;;;25.20;61.90;;;;;;5091126;28;19931;-62
2021/09/15 13:54:51;;;;;;;;;;;25.20;61.90;;;;;;5077048;28;20434;-62
2021/09/15 13:57:18;;;;;;;;;;;25.20;62.00;;;;;;5077836;28;19930;-62
2021/09/15 13:59:45;;;;;;;;;;;25.20;62.00;;;;;;5092922;28;19978;-62
2021/09/15 14:02:12;;;;;;;;;;;25.20;62.00;;;;;;5077374;28;20313;-62
2021/09/15 14:04:39;;;;;;;;;;;25.20;62.00;;;;;;5077381;28;20300;-62
2021/09/15 14:07:06;;;;;;;;;;;25.20;62.00;;;;;;5075859;28;20434;-62
2021/09/15 14:09:33;;;;;;;;;;;25.20;62.00;;;;;;5093075;28;20034;-62
2021/09/15 14:12:20;;;;;;;;;;;25.20;61.90;;;;;;5059994;28;19958;-62
2021/09/15 14:14:47;;;;;;;;;;;25.20;62.00;;;;;;5075980;28;20331;-62
2021/09/15 14:17:14;;;;;;;;;;;25.30;62.10;;;;;;5094015;28;19924;-62
2021/09/15 14:19:41;;;;;;;;;;;25.20;62.00;;;;;;5093835;28;20023;-62
2021/09/15 14:22:08;;;;;;;;;;;25.20;62.00;;;;;;5091984;28;19978;-62
2021/09/15 14:24:43;;;;;;;;;;;25.20;62.10;;;;;;5092347;28;20293;-62
2021/09/15 14:27:10;;;;;;;;;;;25.20;62.10;;;;;;5091973;28;20431;-62
2021/09/15 14:29:37;;;;;;;;;;;25.20;62.10;;;;;;5093191;28;19923;-62